createdAt,value
2017-11-11T00:00:04.105Z,18.23
2017-11-11T00:02:32.977Z,16.97
2017-11-11T00:05:02.563Z,14.77
2017-11-11T00:07:32.205Z,17.97
2017-11-11T00:10:01.646Z,19.97
2017-11-11T00:12:30.527Z,16.73
2017-11-11T00:14:59.376Z,16.03
2017-11-11T00:17:28.273Z,15.77
2017-11-11T00:19:57.146Z,17.13
2017-11-11T00:22:26.788Z,23.93
2017-11-11T00:24:55.640Z,16.53
2017-11-11T00:27:24.531Z,16.00
2017-11-11T00:29:53.368Z,18.20
2017-11-11T00:32:22.206Z,15.93
2017-11-11T00:34:51.078Z,16.67
2017-11-11T00:37:20.640Z,21.20
2017-11-11T00:39:49.488Z,20.27
2017-11-11T00:42:18.361Z,20.03
2017-11-11T00:44:47.213Z,13.50
2017-11-11T00:47:16.078Z,15.37
2017-11-11T00:49:44.972Z,19.37
2017-11-11T00:52:14.072Z,12.83
2017-11-11T00:54:42.929Z,16.50
2017-11-11T00:57:12.076Z,18.60
2017-11-11T00:59:41.690Z,16.70
2017-11-11T01:02:10.573Z,21.03
2017-11-11T01:04:39.435Z,20.03
2017-11-11T01:07:08.300Z,19.67
2017-11-11T01:09:37.183Z,17.40
2017-11-11T01:12:06.067Z,14.67
2017-11-11T01:14:34.910Z,13.83
2017-11-11T01:17:04.009Z,20.33
2017-11-11T01:19:32.872Z,11.93
2017-11-11T01:22:01.734Z,13.33
2017-11-11T01:24:30.577Z,15.57
2017-11-11T01:26:59.564Z,14.90
2017-11-11T01:29:28.400Z,13.90
2017-11-11T01:31:57.254Z,18.70
2017-11-11T01:34:26.137Z,21.90
2017-11-11T01:36:55.006Z,13.07
2017-11-11T01:39:23.853Z,15.77
2017-11-11T01:41:52.714Z,13.87
2017-11-11T01:44:21.555Z,22.87
2017-11-11T01:46:50.396Z,13.63
2017-11-11T01:49:19.276Z,14.40
2017-11-11T01:51:48.113Z,16.43
2017-11-11T01:54:16.965Z,23.00
2017-11-11T01:56:46.850Z,16.30
2017-11-11T01:59:15.702Z,17.43
2017-11-11T02:01:44.538Z,18.10
2017-11-11T02:04:13.404Z,21.63
2017-11-11T02:06:42.243Z,15.90
2017-11-11T02:09:11.092Z,18.07
2017-11-11T02:11:39.959Z,19.67
2017-11-11T02:14:08.835Z,17.70
2017-11-11T02:16:37.690Z,19.30
2017-11-11T02:19:06.576Z,19.20
2017-11-11T02:21:35.416Z,16.30
2017-11-11T02:24:04.268Z,23.47
2017-11-11T02:26:33.162Z,21.40
2017-11-11T02:29:02.022Z,15.93
2017-11-11T02:31:30.864Z,16.80
2017-11-11T02:33:59.775Z,17.27
2017-11-11T02:36:28.677Z,22.90
2017-11-11T02:38:57.520Z,19.43
2017-11-11T02:41:26.389Z,18.27
2017-11-11T02:43:55.232Z,20.23
2017-11-11T02:46:24.083Z,21.70
2017-11-11T02:48:52.952Z,18.93
2017-11-11T02:51:21.796Z,18.80
2017-11-11T02:53:50.644Z,23.30
2017-11-11T02:56:19.509Z,17.20
2017-11-11T02:58:49.097Z,23.00
2017-11-11T03:01:17.932Z,11.80
2017-11-11T03:03:46.828Z,14.67
2017-11-11T03:06:15.672Z,17.67
2017-11-11T03:08:45.075Z,20.13
2017-11-11T03:11:13.934Z,16.83
2017-11-11T03:13:42.793Z,11.87
2017-11-11T03:16:11.644Z,23.57
2017-11-11T03:18:40.542Z,20.20
2017-11-11T03:21:09.415Z,15.13
2017-11-11T03:23:38.247Z,18.10
2017-11-11T03:26:07.122Z,16.27
2017-11-11T03:28:35.944Z,18.07
2017-11-11T03:31:04.803Z,18.10
2017-11-11T03:33:33.698Z,20.17
2017-11-11T03:36:02.582Z,15.03
2017-11-11T03:38:32.255Z,12.33
2017-11-11T03:41:01.126Z,15.37
2017-11-11T03:43:29.968Z,13.73
2017-11-11T03:45:58.808Z,18.27
2017-11-11T03:48:27.672Z,19.70
2017-11-11T03:50:56.517Z,16.33
2017-11-11T03:53:25.364Z,15.83
2017-11-11T03:55:54.250Z,18.23
2017-11-11T03:58:23.468Z,17.07
2017-11-11T04:00:52.312Z,17.43
2017-11-11T04:03:21.174Z,18.00
2017-11-11T04:05:50.157Z,13.67
2017-11-11T04:08:19.022Z,20.73
2017-11-11T04:10:47.881Z,12.73
2017-11-11T04:13:16.761Z,14.57
2017-11-11T04:15:45.598Z,19.87
2017-11-11T04:18:14.457Z,10.33
2017-11-11T04:20:43.329Z,14.60
2017-11-11T04:23:12.166Z,11.40
2017-11-11T04:25:41.052Z,12.40
2017-11-11T04:28:09.886Z,11.47
2017-11-11T04:30:38.809Z,11.80
2017-11-11T04:33:07.693Z,12.43
2017-11-11T04:35:37.657Z,19.37
2017-11-11T04:38:06.536Z,12.40
2017-11-11T04:40:35.660Z,17.53
2017-11-11T04:43:04.524Z,15.53
2017-11-11T04:45:33.367Z,13.30
2017-11-11T04:48:02.916Z,11.33
2017-11-11T04:50:31.759Z,9.53
2017-11-11T04:53:02.460Z,12.30
2017-11-11T04:55:31.330Z,9.97
2017-11-11T04:58:00.190Z,12.30
2017-11-11T05:00:29.050Z,12.13
2017-11-11T05:02:57.941Z,14.47
2017-11-11T05:05:26.788Z,11.63
2017-11-11T05:07:55.610Z,9.63
2017-11-11T05:10:24.482Z,17.80
2017-11-11T05:12:53.317Z,15.67
2017-11-11T05:15:22.240Z,12.40
2017-11-11T05:17:51.112Z,15.33
2017-11-11T05:20:19.950Z,7.67
2017-11-11T05:22:48.794Z,10.07
2017-11-11T05:25:17.686Z,11.60
2017-11-11T05:27:46.885Z,11.63
2017-11-11T05:30:15.756Z,10.73
2017-11-11T05:32:44.630Z,13.07
2017-11-11T05:35:13.477Z,15.63
2017-11-11T05:37:42.319Z,15.97
2017-11-11T05:40:11.194Z,15.67
2017-11-11T05:42:40.072Z,12.30
2017-11-11T05:45:08.910Z,11.93
2017-11-11T05:47:37.782Z,14.90
2017-11-11T05:50:06.638Z,12.50
2017-11-11T05:52:35.467Z,11.87
2017-11-11T05:55:04.352Z,13.73
2017-11-11T05:57:33.205Z,9.33
2017-11-11T06:00:02.078Z,10.40
2017-11-11T06:02:30.941Z,12.93
2017-11-11T06:05:00.723Z,13.13
2017-11-11T06:07:29.562Z,15.40
2017-11-11T06:09:58.477Z,11.67
2017-11-11T06:12:27.321Z,11.00
2017-11-11T06:14:56.179Z,12.13
2017-11-11T06:17:25.054Z,18.53
2017-11-11T06:19:54.001Z,12.07
2017-11-11T06:22:22.849Z,17.90
2017-11-11T06:24:52.453Z,15.67
2017-11-11T06:27:21.311Z,11.07
2017-11-11T06:29:50.149Z,13.53
2017-11-11T06:32:19.015Z,12.30
2017-11-11T06:34:47.858Z,15.37
2017-11-11T06:37:16.728Z,17.13
2017-11-11T06:39:45.631Z,14.63
2017-11-11T06:42:14.469Z,13.33
2017-11-11T06:44:44.033Z,12.30
2017-11-11T06:47:12.889Z,9.57
2017-11-11T06:49:41.749Z,10.47
2017-11-11T06:52:10.621Z,14.80
2017-11-11T06:54:40.221Z,13.30
2017-11-11T06:57:09.099Z,15.37
2017-11-11T06:59:37.949Z,12.63
2017-11-11T07:02:06.811Z,13.50
2017-11-11T07:04:35.661Z,10.53
2017-11-11T07:07:04.545Z,13.53
2017-11-11T07:09:33.415Z,12.73
2017-11-11T07:12:02.276Z,13.47
2017-11-11T07:14:31.153Z,15.20
2017-11-11T07:17:00.027Z,16.27
2017-11-11T07:19:28.865Z,13.03
2017-11-11T07:21:57.791Z,14.60
2017-11-11T07:24:26.681Z,17.87
2017-11-11T07:26:55.526Z,12.47
2017-11-11T07:29:24.361Z,19.33
2017-11-11T07:31:53.243Z,14.47
2017-11-11T07:34:22.100Z,15.70
2017-11-11T07:36:50.965Z,11.10
2017-11-11T07:39:19.853Z,17.77
2017-11-11T07:41:49.081Z,12.70
2017-11-11T07:44:17.956Z,13.97
2017-11-11T07:46:47.045Z,13.17
2017-11-11T07:49:16.616Z,10.97
2017-11-11T07:51:45.465Z,17.57
2017-11-11T07:54:14.612Z,13.10
2017-11-11T07:56:43.471Z,14.03
2017-11-11T07:59:12.355Z,10.73
2017-11-11T08:01:42.419Z,12.03
2017-11-11T08:04:11.946Z,13.70
2017-11-11T08:06:40.827Z,12.67
2017-11-11T08:09:09.700Z,22.30
2017-11-11T08:11:38.545Z,19.37
2017-11-11T08:14:07.435Z,18.87
2017-11-11T08:16:36.922Z,15.70
2017-11-11T08:19:05.773Z,17.23
2017-11-11T08:21:34.973Z,16.03
2017-11-11T08:24:03.889Z,20.53
2017-11-11T08:26:32.832Z,18.67
2017-11-11T08:29:01.724Z,17.10
2017-11-11T08:31:30.878Z,18.40
2017-11-11T08:33:59.810Z,27.20
2017-11-11T08:36:28.648Z,11.50
2017-11-11T08:38:58.182Z,20.80
2017-11-11T08:41:27.122Z,16.63
2017-11-11T08:43:56.019Z,18.50
2017-11-11T08:46:26.043Z,18.73
2017-11-11T08:48:55.459Z,23.17
2017-11-11T08:51:24.357Z,16.37
2017-11-11T08:53:54.132Z,16.93
2017-11-11T08:56:23.523Z,21.70
2017-11-11T08:58:52.519Z,19.30
2017-11-11T09:01:21.454Z,18.53
2017-11-11T09:03:50.315Z,14.80
2017-11-11T09:06:19.203Z,17.33
2017-11-11T09:08:48.179Z,16.07
2017-11-11T09:11:17.090Z,17.80
2017-11-11T09:13:45.957Z,18.07
2017-11-11T09:16:14.871Z,18.10
2017-11-11T09:18:43.746Z,20.00
2017-11-11T09:21:12.624Z,20.03
2017-11-11T09:23:41.542Z,22.90
2017-11-11T09:26:10.399Z,19.47
2017-11-11T09:28:39.314Z,21.03
2017-11-11T09:31:08.329Z,18.73
2017-11-11T09:33:39.267Z,15.50
2017-11-11T09:36:08.264Z,26.20
2017-11-11T09:38:37.159Z,17.03
2017-11-11T09:41:06.030Z,14.10
2017-11-11T09:43:34.967Z,19.60
2017-11-11T09:46:05.762Z,19.67
2017-11-11T09:48:34.786Z,17.80
2017-11-11T09:51:03.919Z,21.03
2017-11-11T09:53:33.305Z,16.17
2017-11-11T09:56:02.181Z,16.50
2017-11-11T09:58:31.048Z,22.40
2017-11-11T10:00:59.989Z,15.73
2017-11-11T10:03:28.849Z,16.03
2017-11-11T10:05:57.715Z,15.80
2017-11-11T10:08:26.581Z,15.37
2017-11-11T10:10:55.424Z,19.47
2017-11-11T10:13:24.296Z,17.73
2017-11-11T10:15:53.961Z,16.77
2017-11-11T10:18:22.846Z,17.83
2017-11-11T10:20:51.736Z,17.93
2017-11-11T10:23:20.576Z,21.93
2017-11-11T10:25:49.420Z,17.63
2017-11-11T10:28:18.337Z,13.53
2017-11-11T10:30:47.278Z,15.73
2017-11-11T10:33:16.120Z,17.80
2017-11-11T10:35:44.987Z,20.53
2017-11-11T10:38:14.779Z,19.43
2017-11-11T10:40:43.745Z,22.67
2017-11-11T10:43:13.145Z,16.03
2017-11-11T10:45:42.108Z,70.93
2017-11-11T10:48:10.964Z,39.63
2017-11-11T10:50:40.675Z,19.73
2017-11-11T10:53:09.528Z,42.10
2017-11-11T10:55:39.394Z,184.07
2017-11-11T10:58:08.289Z,94.17
2017-11-11T11:00:37.147Z,17.33
2017-11-11T11:03:06.004Z,41.37
2017-11-11T11:05:35.234Z,16.17
2017-11-11T11:08:04.086Z,15.90
2017-11-11T11:10:33.035Z,14.27
2017-11-11T11:13:02.475Z,15.17
2017-11-11T11:15:32.962Z,13.77
2017-11-11T11:18:02.855Z,16.23
2017-11-11T11:20:31.750Z,18.50
2017-11-11T11:23:00.598Z,17.27
2017-11-11T11:25:29.578Z,14.23
2017-11-11T11:27:58.481Z,17.10
2017-11-11T11:30:27.334Z,18.07
2017-11-11T11:32:56.208Z,14.80
2017-11-11T11:35:25.774Z,17.23
2017-11-11T11:37:55.447Z,19.70
2017-11-11T11:40:24.329Z,17.03
2017-11-11T11:42:53.727Z,23.17
2017-11-11T11:45:22.581Z,18.07
2017-11-11T11:47:51.481Z,20.63
2017-11-11T11:50:20.335Z,16.90
2017-11-11T11:52:49.181Z,12.93
2017-11-11T11:55:18.070Z,14.13
2017-11-11T11:57:46.940Z,14.53
2017-11-11T12:00:15.784Z,15.33
2017-11-11T12:02:44.670Z,13.90
2017-11-11T12:05:13.501Z,11.97
2017-11-11T12:07:42.346Z,15.60
2017-11-11T12:10:11.246Z,13.00
2017-11-11T12:12:40.086Z,13.27
2017-11-11T12:15:08.947Z,15.07
2017-11-11T12:17:37.816Z,11.13
2017-11-11T12:20:06.664Z,12.77
2017-11-11T12:22:35.498Z,12.70
2017-11-11T12:25:04.402Z,16.17
2017-11-11T12:27:33.284Z,13.87
2017-11-11T12:30:02.177Z,16.17
2017-11-11T12:32:31.081Z,17.80
2017-11-11T12:34:59.942Z,23.27
2017-11-11T12:37:28.822Z,29.33
2017-11-11T12:39:57.710Z,30.27
2017-11-11T12:42:26.562Z,29.40
2017-11-11T12:44:55.455Z,29.93
2017-11-11T12:47:24.358Z,27.53
2017-11-11T12:49:53.218Z,36.00
2017-11-11T12:52:22.083Z,30.07
2017-11-11T12:54:51.009Z,35.23
2017-11-11T12:57:19.883Z,33.03
2017-11-11T12:59:48.740Z,31.03
2017-11-11T13:02:17.636Z,37.90
2017-11-11T13:04:46.486Z,33.00
2017-11-11T13:07:15.358Z,34.23
2017-11-11T13:09:44.248Z,39.33
2017-11-11T13:12:13.882Z,34.33
2017-11-11T13:14:42.806Z,36.27
2017-11-11T13:17:12.350Z,33.93
2017-11-11T13:19:41.210Z,29.80
2017-11-11T13:22:10.088Z,32.13
2017-11-11T13:24:39.010Z,31.60
2017-11-11T13:27:08.698Z,31.70
2017-11-11T13:29:37.553Z,31.80
2017-11-11T13:32:07.194Z,31.87
2017-11-11T13:34:36.100Z,27.40
2017-11-11T13:37:05.002Z,26.73
2017-11-11T13:39:33.906Z,26.93
2017-11-11T13:42:02.821Z,28.73
2017-11-11T13:44:31.680Z,27.30
2017-11-11T13:47:00.577Z,28.57
2017-11-11T13:49:29.462Z,26.10
2017-11-11T13:51:59.012Z,34.07
2017-11-11T13:54:27.974Z,32.07
2017-11-11T13:56:56.838Z,31.43
2017-11-11T13:59:25.693Z,32.07
2017-11-11T14:01:55.434Z,32.33
2017-11-11T14:04:25.273Z,35.03
2017-11-11T14:06:54.137Z,30.10
2017-11-11T14:09:23.052Z,35.60
2017-11-11T14:11:51.946Z,38.70
2017-11-11T14:14:20.828Z,38.67
2017-11-11T14:16:49.705Z,33.57
2017-11-11T14:19:19.044Z,41.80
2017-11-11T14:21:47.889Z,40.13
2017-11-11T14:24:16.818Z,39.87
2017-11-11T14:26:45.669Z,39.50
2017-11-11T14:29:14.532Z,42.23
2017-11-11T14:31:43.440Z,45.03
2017-11-11T14:34:13.186Z,46.03
2017-11-11T14:36:42.070Z,44.67
2017-11-11T14:39:10.976Z,47.07
2017-11-11T14:41:39.830Z,52.37
2017-11-11T14:44:08.714Z,58.43
2017-11-11T14:46:37.606Z,44.23
2017-11-11T14:49:06.466Z,48.57
2017-11-11T14:51:35.315Z,45.93
2017-11-11T14:54:04.722Z,54.17
2017-11-11T14:56:33.571Z,51.63
2017-11-11T14:59:02.468Z,47.87
2017-11-11T15:01:32.347Z,47.03
2017-11-11T15:04:01.208Z,41.03
2017-11-11T15:06:31.046Z,43.23
2017-11-11T15:08:59.906Z,46.20
2017-11-11T15:11:28.776Z,56.30
2017-11-11T15:13:57.646Z,57.63
2017-11-11T15:16:26.517Z,50.07
2017-11-11T15:18:55.385Z,44.03
2017-11-11T15:21:24.262Z,43.57
2017-11-11T15:23:53.122Z,52.50
2017-11-11T15:26:21.980Z,48.97
2017-11-11T15:28:50.878Z,42.17
2017-11-11T15:31:19.798Z,43.53
2017-11-11T15:33:48.710Z,48.77
2017-11-11T15:36:17.584Z,51.97
2017-11-11T15:38:46.442Z,47.97
2017-11-11T15:41:15.289Z,46.43
2017-11-11T15:43:44.195Z,53.03
2017-11-11T15:46:13.045Z,48.67
2017-11-11T15:48:41.885Z,40.50
2017-11-11T15:51:11.490Z,50.10
2017-11-11T15:53:40.498Z,48.97
2017-11-11T15:56:09.375Z,41.83
2017-11-11T15:58:38.256Z,44.53
2017-11-11T16:01:07.135Z,44.03
2017-11-11T16:03:35.986Z,37.97
2017-11-11T16:06:04.916Z,52.50
2017-11-11T16:08:33.833Z,43.43
2017-11-11T16:11:03.645Z,46.17
2017-11-11T16:13:32.529Z,45.27
2017-11-11T16:18:36.523Z,39.50
2017-11-11T16:21:05.401Z,49.03
2017-11-11T16:23:34.279Z,79.20
2017-11-11T16:26:03.215Z,43.40
2017-11-11T16:28:32.073Z,47.67
2017-11-11T16:31:00.946Z,47.00
2017-11-11T16:33:29.854Z,35.97
2017-11-11T16:35:58.708Z,27.83
2017-11-11T16:38:27.598Z,26.87
2017-11-11T16:40:56.511Z,27.17
2017-11-11T16:43:25.357Z,27.30
2017-11-11T16:45:55.154Z,22.90
2017-11-11T16:48:26.244Z,29.40
2017-11-11T16:50:55.197Z,26.93
2017-11-11T16:53:25.432Z,22.10
2017-11-11T16:55:58.745Z,19.50
2017-11-11T16:58:27.893Z,20.10
2017-11-11T17:00:56.883Z,26.10
2017-11-11T17:03:26.507Z,28.70
2017-11-11T17:05:56.241Z,24.67
2017-11-11T17:08:25.395Z,22.17
2017-11-11T17:10:54.259Z,21.40
2017-11-11T17:13:23.775Z,19.63
2017-11-11T17:15:52.657Z,16.53
2017-11-11T17:18:21.527Z,17.43
2017-11-11T17:20:50.389Z,17.07
2017-11-11T17:23:19.288Z,17.40
2017-11-11T17:25:48.434Z,15.17
2017-11-11T17:28:17.272Z,16.53
2017-11-11T17:30:46.635Z,13.47
2017-11-11T17:33:15.509Z,17.13
2017-11-11T17:35:44.366Z,15.73
2017-11-11T17:38:14.159Z,16.07
2017-11-11T17:40:43.009Z,20.10
2017-11-11T17:43:11.924Z,17.30
2017-11-11T17:45:41.683Z,16.27
2017-11-11T17:48:10.561Z,20.40
2017-11-11T17:50:39.435Z,17.53
2017-11-11T17:53:08.359Z,15.97
2017-11-11T17:55:37.589Z,19.23
2017-11-11T17:58:07.477Z,20.57
2017-11-11T18:00:36.373Z,21.70
2017-11-11T18:03:05.284Z,17.53
2017-11-11T18:05:34.598Z,20.60
2017-11-11T18:08:03.510Z,18.37
2017-11-11T18:10:32.357Z,27.90
2017-11-11T18:13:01.215Z,19.87
2017-11-11T18:15:30.399Z,19.87
2017-11-11T18:18:00.708Z,19.73
2017-11-11T18:20:29.823Z,18.03
2017-11-11T18:22:58.681Z,16.80
2017-11-11T18:25:27.625Z,17.30
2017-11-11T18:27:56.535Z,17.43
2017-11-11T18:30:25.655Z,16.10
2017-11-11T18:32:54.570Z,20.57
2017-11-11T18:35:24.117Z,21.50
2017-11-11T18:37:53.207Z,18.43
2017-11-11T18:40:22.953Z,21.73
2017-11-11T18:42:51.806Z,16.73
2017-11-11T18:45:20.662Z,27.20
2017-11-11T18:47:49.605Z,17.40
2017-11-11T18:50:18.501Z,22.23
2017-11-11T18:52:47.345Z,18.40
2017-11-11T18:55:16.244Z,20.17
2017-11-11T18:57:47.816Z,19.87
2017-11-11T19:00:16.704Z,19.23
2017-11-11T19:02:45.605Z,18.77
2017-11-11T19:05:16.171Z,16.50
2017-11-11T19:07:45.041Z,17.30
2017-11-11T19:10:13.945Z,18.93
2017-11-11T19:12:42.833Z,17.07
2017-11-11T19:15:11.691Z,24.50
2017-11-11T19:17:40.643Z,23.40
2017-11-11T19:20:09.593Z,32.90
2017-11-11T19:22:38.461Z,25.90
2017-11-11T19:25:07.546Z,21.47
2017-11-11T19:27:37.264Z,23.57
2017-11-11T19:30:06.182Z,17.00
2017-11-11T19:32:35.025Z,23.10
2017-11-11T19:35:03.909Z,19.43
2017-11-11T19:37:33.732Z,20.33
2017-11-11T19:40:03.342Z,24.40
2017-11-11T19:42:32.233Z,21.47
2017-11-11T19:45:01.080Z,18.03
2017-11-11T19:47:29.995Z,27.17
2017-11-11T19:49:58.865Z,19.70
2017-11-11T19:52:27.732Z,21.53
2017-11-11T19:54:56.589Z,18.87
2017-11-11T19:57:25.453Z,20.20
2017-11-11T19:59:54.310Z,24.33
2017-11-11T20:02:23.183Z,21.37
2017-11-11T20:04:52.055Z,37.80
2017-11-11T20:07:20.921Z,34.80
2017-11-11T20:09:49.769Z,16.57
2017-11-11T20:12:18.637Z,19.93
2017-11-11T20:14:47.484Z,19.90
2017-11-11T20:17:16.328Z,22.30
2017-11-11T20:19:45.261Z,20.97
2017-11-11T20:22:14.114Z,23.10
2017-11-11T20:24:42.960Z,17.90
2017-11-11T20:27:11.827Z,17.97
2017-11-11T20:29:40.681Z,16.77
2017-11-11T20:32:09.569Z,21.47
2017-11-11T20:34:38.755Z,32.83
2017-11-11T20:37:07.608Z,22.40
2017-11-11T20:39:36.701Z,22.90
2017-11-11T20:42:05.649Z,21.50
2017-11-11T20:44:34.619Z,13.13
2017-11-11T20:47:03.482Z,22.57
2017-11-11T20:49:32.375Z,16.17
2017-11-11T20:52:01.289Z,16.33
2017-11-11T20:54:30.141Z,17.77
2017-11-11T20:56:59.400Z,22.00
2017-11-11T20:59:28.769Z,16.07
2017-11-11T21:01:57.707Z,21.97
2017-11-11T21:04:26.591Z,16.80
2017-11-11T21:06:55.441Z,18.43
2017-11-11T21:09:24.305Z,18.93
2017-11-11T21:11:53.190Z,20.13
2017-11-11T21:14:22.853Z,18.40
2017-11-11T21:16:51.716Z,15.77
2017-11-11T21:19:20.595Z,18.17
2017-11-11T21:21:49.465Z,19.20
2017-11-11T21:24:18.319Z,16.90
2017-11-11T21:26:47.224Z,18.10
2017-11-11T21:29:16.088Z,11.93
2017-11-11T21:31:44.947Z,15.00
2017-11-11T21:34:13.854Z,13.83
2017-11-11T21:36:43.461Z,14.50
2017-11-11T21:39:12.379Z,14.20
2017-11-11T21:41:41.277Z,20.30
2017-11-11T21:44:13.058Z,16.70
2017-11-11T21:46:42.176Z,15.53
2017-11-11T21:49:11.123Z,19.53
2017-11-11T21:51:40.063Z,21.23
2017-11-11T21:54:08.953Z,28.20
2017-11-11T21:56:38.480Z,26.27
2017-11-11T21:59:08.969Z,27.43
2017-11-11T22:01:38.965Z,19.27
2017-11-11T22:04:08.082Z,41.37
2017-11-11T22:06:37.820Z,43.53
2017-11-11T22:09:06.837Z,53.47
2017-11-11T22:11:35.750Z,22.00
2017-11-11T22:14:05.601Z,24.53
2017-11-11T22:16:34.756Z,27.43
2017-11-11T22:19:03.603Z,17.97
2017-11-11T22:21:32.747Z,19.30
2017-11-11T22:24:01.719Z,16.20
2017-11-11T22:26:30.730Z,19.20
2017-11-11T22:28:59.591Z,20.77
2017-11-11T22:31:28.470Z,26.07
2017-11-11T22:33:58.404Z,27.30
2017-11-11T22:36:27.261Z,31.60
2017-11-11T22:38:56.390Z,33.43
2017-11-11T22:41:25.265Z,28.83
2017-11-11T22:43:54.166Z,25.50
2017-11-11T22:46:23.044Z,28.13
2017-11-11T22:48:51.938Z,33.87
2017-11-11T22:51:20.822Z,30.60
2017-11-11T22:53:49.856Z,24.50
2017-11-11T22:56:18.721Z,26.00
2017-11-11T22:58:47.594Z,25.67
2017-11-11T23:01:16.471Z,27.87
2017-11-11T23:03:47.918Z,28.40
2017-11-11T23:06:16.812Z,31.00
2017-11-11T23:08:45.654Z,30.60
2017-11-11T23:11:14.564Z,34.00
2017-11-11T23:13:43.448Z,36.60
2017-11-11T23:16:12.312Z,30.83
2017-11-11T23:18:41.161Z,35.13
2017-11-11T23:21:10.128Z,49.63
2017-11-11T23:23:38.990Z,45.47
2017-11-11T23:26:07.839Z,66.63
2017-11-11T23:28:36.731Z,55.70
2017-11-11T23:31:06.592Z,51.93
2017-11-11T23:33:35.438Z,48.53
2017-11-11T23:36:04.316Z,64.43
2017-11-11T23:38:33.297Z,65.20
2017-11-11T23:41:02.144Z,56.33
2017-11-11T23:43:31.072Z,71.17
2017-11-11T23:46:00.044Z,64.73
2017-11-11T23:48:28.915Z,84.27
2017-11-11T23:50:58.729Z,71.67
2017-11-11T23:53:27.608Z,75.23
2017-11-11T23:55:56.456Z,84.60
2017-11-11T23:58:25.347Z,86.53
